Huvudsida
METAR-TAF:

METAR-TAF

Flygplatser :

Al-Hasa, Saudiarabien

latitud: 25-18N, longitud: 049-29E, höjd: 179 m

Aktuellt väderrapport

Denna rapport gjordes för 48 minuter sedan, klockan 03:00 UTC
Vind 15 kt från nord/nordväst
Temperatur 13°C
Fuktighet 58%
Tryck 1016 hPa
Sikt 10 km eller mer
Inga moln under 1 500 m eller inga cumulonimbus

METAR: OEAH 200300Z 34015KT CAVOK 13/05 Q1016 NOSIG

Tid: 06:48 (03:48 UTC)

Väderprognos

Denna rapport gjordes för 4 timmar och 48 minuter sedan, klockan 23:00 UTC
Prognos gäller från 20 kl. 00 UTC till 21 kl. 06 UTC
Vind 8 kt från nord/nordväst
Sikt 10 km eller mer
Spridda moln på en höjd av 4000 ft
Brutna moln på en höjd av 8000 ft
Temporärt
från 20 kl. 00 UTC till 20 kl. 10 UTC
Sikt: 4000 m
Få moln på en höjd av 3500 ft, Cumulonimbus.
åska, regn

TAF: OEAH 192300Z 2000/2106 34008KT 9999 SCT040 BKN080 TEMPO 2000/2010 4000 TSRA FEW035CB

Aktuella väderrapporter och prognoser från 4000 flygplatser (METAR- och TAF-rapporter).

De tillgängliga stationerna syns som gula och röda prickar på kartan.

För musen över prickarna för att se namnen på stationerna.

Klicka sedan för att få väderrapporter och prognoser.

För att ändra kartan: Klicka på de gröna knapparna med ett svart kors på för att zooma in; den gröna knappen med ett streck på för att zooma ut; eller på de gröna pilarna för angränsande kartor.


METAR-TAF: